sensor_id;sensor_type;location;lat;lon;timestamp;pressure;altitude;pressure_sealevel;temperature;humidity
78444;BME280;67739;52.986;8.894;2023-07-20T00:02:15;101340.69;;;15.81;64.42
78444;BME280;67739;52.986;8.894;2023-07-20T00:04:40;101342.53;;;15.81;64.35
78444;BME280;67739;52.986;8.894;2023-07-20T00:07:09;101336.22;;;15.80;64.75
78444;BME280;67739;52.986;8.894;2023-07-20T00:09:34;101339.91;;;15.79;64.38
78444;BME280;67739;52.986;8.894;2023-07-20T00:11:59;101324.72;;;15.77;64.91
78444;BME280;67739;52.986;8.894;2023-07-20T00:14:25;101337.47;;;15.75;64.58
78444;BME280;67739;52.986;8.894;2023-07-20T00:16:51;101336.59;;;15.74;64.57
78444;BME280;67739;52.986;8.894;2023-07-20T00:19:27;101338.44;;;15.74;65.01
78444;BME280;67739;52.986;8.894;2023-07-20T00:21:53;101335.84;;;15.72;64.60
78444;BME280;67739;52.986;8.894;2023-07-20T00:24:19;101326.84;;;15.72;65.02
78444;BME280;67739;52.986;8.894;2023-07-20T00:26:45;101334.09;;;15.71;65.00
78444;BME280;67739;52.986;8.894;2023-07-20T00:29:10;101334.19;;;15.70;65.00
78444;BME280;67739;52.986;8.894;2023-07-20T00:31:36;101336.03;;;15.69;65.02
78444;BME280;67739;52.986;8.894;2023-07-20T00:34:03;101329.75;;;15.69;64.83
78444;BME280;67739;52.986;8.894;2023-07-20T00:36:31;101329.84;;;15.67;64.99
78444;BME280;67739;52.986;8.894;2023-07-20T00:38:57;101330.78;;;15.66;65.15
78444;BME280;67739;52.986;8.894;2023-07-20T00:41:22;101336.28;;;15.65;65.14
78444;BME280;67739;52.986;8.894;2023-07-20T00:43:47;101326.44;;;15.64;65.13
78444;BME280;67739;52.986;8.894;2023-07-20T00:46:13;101324.69;;;15.63;65.28
78444;BME280;67739;52.986;8.894;2023-07-20T00:48:40;101320.25;;;15.62;65.49
78444;BME280;67739;52.986;8.894;2023-07-20T00:51:06;101323.91;;;15.61;65.53
78444;BME280;67739;52.986;8.894;2023-07-20T00:53:31;101321.28;;;15.59;65.43
78444;BME280;67739;52.986;8.894;2023-07-20T00:55:57;101315.00;;;15.59;65.27
78444;BME280;67739;52.986;8.894;2023-07-20T00:58:23;101316.97;;;15.57;65.31
78444;BME280;67739;52.986;8.894;2023-07-20T01:00:49;101317.94;;;15.55;65.72
78444;BME280;67739;52.986;8.894;2023-07-20T01:03:14;101329.69;;;15.54;65.31
78444;BME280;67739;52.986;8.894;2023-07-20T01:08:38;101330.72;;;15.52;65.76
78444;BME280;67739;52.986;8.894;2023-07-20T01:14:16;101329.06;;;15.49;65.83
78444;BME280;67739;52.986;8.894;2023-07-20T01:16:42;101332.72;;;15.48;65.68
78444;BME280;67739;52.986;8.894;2023-07-20T01:19:07;101341.81;;;15.47;66.01
78444;BME280;67739;52.986;8.894;2023-07-20T01:21:48;101333.78;;;15.46;65.95
78444;BME280;67739;52.986;8.894;2023-07-20T01:24:27;101340.16;;;15.45;65.94
78444;BME280;67739;52.986;8.894;2023-07-20T01:27:27;101342.97;;;15.43;66.18
78444;BME280;67739;52.986;8.894;2023-07-20T01:32:30;101342.09;;;15.43;66.25
78444;BME280;67739;52.986;8.894;2023-07-20T01:34:56;101336.69;;;15.43;65.95
78444;BME280;67739;52.986;8.894;2023-07-20T01:37:24;101333.22;;;15.41;66.12
78444;BME280;67739;52.986;8.894;2023-07-20T01:39:54;101335.91;;;15.41;66.16
78444;BME280;67739;52.986;8.894;2023-07-20T01:42:22;101337.75;;;15.40;66.44
78444;BME280;67739;52.986;8.894;2023-07-20T01:44:52;101339.50;;;15.41;66.49
78444;BME280;67739;52.986;8.894;2023-07-20T01:47:18;101338.63;;;15.41;66.35
78444;BME280;67739;52.986;8.894;2023-07-20T01:49:44;101321.53;;;15.40;66.44
78444;BME280;67739;52.986;8.894;2023-07-20T01:52:09;101323.28;;;15.41;66.62
78444;BME280;67739;52.986;8.894;2023-07-20T01:54:35;101322.41;;;15.41;66.55
78444;BME280;67739;52.986;8.894;2023-07-20T01:57:00;101334.97;;;15.42;66.67
78444;BME280;67739;52.986;8.894;2023-07-20T01:59:25;101321.53;;;15.40;66.55
78444;BME280;67739;52.986;8.894;2023-07-20T02:01:52;101319.69;;;15.41;66.83
78444;BME280;67739;52.986;8.894;2023-07-20T02:04:18;101315.25;;;15.40;66.63
78444;BME280;67739;52.986;8.894;2023-07-20T02:06:46;101317.94;;;15.40;66.52
78444;BME280;67739;52.986;8.894;2023-07-20T02:09:12;101319.78;;;15.39;66.81
78444;BME280;67739;52.986;8.894;2023-07-20T02:11:40;101322.47;;;15.39;67.02
78444;BME280;67739;52.986;8.894;2023-07-20T02:14:05;101315.25;;;15.40;66.95
78444;BME280;67739;52.986;8.894;2023-07-20T02:16:31;101329.72;;;15.39;66.84
78444;BME280;67739;52.986;8.894;2023-07-20T02:18:56;101322.47;;;15.39;66.84
78444;BME280;67739;52.986;8.894;2023-07-20T02:21:24;101329.72;;;15.39;66.97
78444;BME280;67739;52.986;8.894;2023-07-20T02:23:50;101328.84;;;15.38;66.79
78444;BME280;67739;52.986;8.894;2023-07-20T02:26:17;101333.31;;;15.39;67.12
78444;BME280;67739;52.986;8.894;2023-07-20T02:28:43;101326.16;;;15.38;67.24
78444;BME280;67739;52.986;8.894;2023-07-20T02:31:08;101331.56;;;15.38;66.66
78444;BME280;67739;52.986;8.894;2023-07-20T02:33:33;101332.44;;;15.39;67.02
78444;BME280;67739;52.986;8.894;2023-07-20T02:36:01;101341.41;;;15.39;66.96
78444;BME280;67739;52.986;8.894;2023-07-20T02:38:27;101333.38;;;15.38;67.37
78444;BME280;67739;52.986;8.894;2023-07-20T02:40:52;101341.50;;;15.38;66.98
78444;BME280;67739;52.986;8.894;2023-07-20T02:43:17;101345.06;;;15.38;67.51
78444;BME280;67739;52.986;8.894;2023-07-20T02:45:43;101345.94;;;15.39;67.39
78444;BME280;67739;52.986;8.894;2023-07-20T02:48:08;101345.06;;;15.38;67.16
78444;BME280;67739;52.986;8.894;2023-07-20T02:50:34;101345.06;;;15.38;67.56
78444;BME280;67739;52.986;8.894;2023-07-20T02:53:00;101347.78;;;15.38;67.64
78444;BME280;67739;52.986;8.894;2023-07-20T02:55:25;101333.38;;;15.38;67.58
78444;BME280;67739;52.986;8.894;2023-07-20T02:57:51;101319.78;;;15.39;67.18
78444;BME280;67739;52.986;8.894;2023-07-20T03:00:16;101314.47;;;15.38;67.46
78444;BME280;67739;52.986;8.894;2023-07-20T03:02:44;101316.22;;;15.39;67.34
78444;BME280;67739;52.986;8.894;2023-07-20T03:05:13;101326.16;;;15.38;67.48
78444;BME280;67739;52.986;8.894;2023-07-20T03:07:38;101327.03;;;15.39;67.61
78444;BME280;67739;52.986;8.894;2023-07-20T03:10:04;101333.38;;;15.38;67.58
78444;BME280;67739;52.986;8.894;2023-07-20T03:12:32;101336.00;;;15.39;67.59
78444;BME280;67739;52.986;8.894;2023-07-20T03:15:06;101343.25;;;15.39;67.77
78444;BME280;67739;52.986;8.894;2023-07-20T03:17:32;101349.53;;;15.39;67.42
78444;BME280;67739;52.986;8.894;2023-07-20T03:20:00;101344.13;;;15.39;67.30
78444;BME280;67739;52.986;8.894;2023-07-20T03:22:26;101342.28;;;15.40;67.44
78444;BME280;67739;52.986;8.894;2023-07-20T03:24:51;101348.66;;;15.39;67.36
78444;BME280;67739;52.986;8.894;2023-07-20T03:27:17;101338.78;;;15.38;67.49
78444;BME280;67739;52.986;8.894;2023-07-20T03:29:43;101338.78;;;15.38;67.53
78444;BME280;67739;52.986;8.894;2023-07-20T03:32:09;101343.31;;;15.37;67.58
78444;BME280;67739;52.986;8.894;2023-07-20T03:34:35;101343.31;;;15.37;67.71
78444;BME280;67739;52.986;8.894;2023-07-20T03:37:00;101346.03;;;15.37;67.44
78444;BME280;67739;52.986;8.894;2023-07-20T03:39:26;101351.44;;;15.37;67.47
78444;BME280;67739;52.986;8.894;2023-07-20T03:41:51;101348.72;;;15.37;67.64
78444;BME280;67739;52.986;8.894;2023-07-20T03:44:16;101356.84;;;15.37;67.58
78444;BME280;67739;52.986;8.894;2023-07-20T03:46:42;101359.53;;;15.37;67.25
78444;BME280;67739;52.986;8.894;2023-07-20T03:49:07;101355.00;;;15.38;67.37
78444;BME280;67739;52.986;8.894;2023-07-20T03:51:34;101355.09;;;15.36;67.70
78444;BME280;67739;52.986;8.894;2023-07-20T03:53:59;101351.53;;;15.36;67.43
78444;BME280;67739;52.986;8.894;2023-07-20T03:56:25;101356.94;;;15.36;67.63
78444;BME280;67739;52.986;8.894;2023-07-20T03:58:53;101357.88;;;15.35;67.52
78444;BME280;67739;52.986;8.894;2023-07-20T04:01:19;101361.47;;;15.35;67.35
78444;BME280;67739;52.986;8.894;2023-07-20T04:03:44;101366.00;;;15.35;67.39
78444;BME280;67739;52.986;8.894;2023-07-20T04:06:10;101354.31;;;15.34;67.43
78444;BME280;67739;52.986;8.894;2023-07-20T04:08:36;101360.59;;;15.35;67.34
78444;BME280;67739;52.986;8.894;2023-07-20T04:11:02;101372.28;;;15.35;67.68
78444;BME280;67739;52.986;8.894;2023-07-20T04:13:28;101372.38;;;15.34;67.53
78444;BME280;67739;52.986;8.894;2023-07-20T04:15:53;101369.66;;;15.34;67.37
78444;BME280;67739;52.986;8.894;2023-07-20T04:18:19;101368.78;;;15.33;67.64
78444;BME280;67739;52.986;8.894;2023-07-20T04:20:45;101368.78;;;15.33;67.56
78444;BME280;67739;52.986;8.894;2023-07-20T04:23:10;101366.09;;;15.33;67.64
78444;BME280;67739;52.986;8.894;2023-07-20T04:25:35;101371.50;;;15.33;67.46
78444;BME280;67739;52.986;8.894;2023-07-20T04:28:05;101368.78;;;15.33;67.89
78444;BME280;67739;52.986;8.894;2023-07-20T04:30:34;101376.91;;;15.33;67.75
78444;BME280;67739;52.986;8.894;2023-07-20T04:32:59;101375.06;;;15.34;68.01
78444;BME280;67739;52.986;8.894;2023-07-20T04:35:47;101376.91;;;15.33;67.92
78444;BME280;67739;52.986;8.894;2023-07-20T04:38:13;101376.03;;;15.33;67.89
78444;BME280;67739;52.986;8.894;2023-07-20T04:40:40;101374.19;;;15.33;67.77
78444;BME280;67739;52.986;8.894;2023-07-20T04:43:09;101383.28;;;15.32;67.77
78444;BME280;67739;52.986;8.894;2023-07-20T04:45:34;101382.31;;;15.33;67.77
78444;BME280;67739;52.986;8.894;2023-07-20T04:48:00;101380.47;;;15.34;67.87
78444;BME280;67739;52.986;8.894;2023-07-20T04:50:25;101378.72;;;15.33;68.22
78444;BME280;67739;52.986;8.894;2023-07-20T04:52:50;101380.47;;;15.34;67.80
78444;BME280;67739;52.986;8.894;2023-07-20T04:55:16;101380.47;;;15.34;68.20
78444;BME280;67739;52.986;8.894;2023-07-20T04:57:41;101378.66;;;15.34;68.41
78444;BME280;67739;52.986;8.894;2023-07-20T05:00:07;101385.81;;;15.35;68.12
78444;BME280;67739;52.986;8.894;2023-07-20T05:02:32;101384.84;;;15.36;68.34
78444;BME280;67739;52.986;8.894;2023-07-20T05:04:58;101385.72;;;15.37;68.43
78444;BME280;67739;52.986;8.894;2023-07-20T05:07:23;101384.75;;;15.38;68.64
78444;BME280;67739;52.986;8.894;2023-07-20T05:09:48;101383.78;;;15.39;69.12
78444;BME280;67739;52.986;8.894;2023-07-20T05:12:14;101374.72;;;15.40;69.21
78444;BME280;67739;52.986;8.894;2023-07-20T05:14:39;101372.03;;;15.40;69.01
78444;BME280;67739;52.986;8.894;2023-07-20T05:17:05;101376.47;;;15.41;69.11
78444;BME280;67739;52.986;8.894;2023-07-20T05:19:30;101385.47;;;15.41;68.97
78444;BME280;67739;52.986;8.894;2023-07-20T05:21:56;101387.19;;;15.42;69.35
78444;BME280;67739;52.986;8.894;2023-07-20T05:24:21;101390.78;;;15.43;69.33
78444;BME280;67739;52.986;8.894;2023-07-20T05:26:47;101394.22;;;15.45;69.25
78444;BME280;67739;52.986;8.894;2023-07-20T05:29:13;101396.75;;;15.48;69.52
78444;BME280;67739;52.986;8.894;2023-07-20T05:31:38;101382.19;;;15.50;69.85
78444;BME280;67739;52.986;8.894;2023-07-20T05:34:04;101384.81;;;15.52;69.57
78444;BME280;67739;52.986;8.894;2023-07-20T05:36:29;101381.00;;;15.56;69.88
78444;BME280;67739;52.986;8.894;2023-07-20T05:38:56;101387.00;;;15.61;70.05
78444;BME280;67739;52.986;8.894;2023-07-20T05:41:21;101391.25;;;15.65;70.44
78444;BME280;67739;52.986;8.894;2023-07-20T05:43:47;101401.03;;;15.68;70.04
78444;BME280;67739;52.986;8.894;2023-07-20T05:46:13;101399.97;;;15.70;70.04
78444;BME280;67739;52.986;8.894;2023-07-20T05:48:38;101402.47;;;15.73;70.38
78444;BME280;67739;52.986;8.894;2023-07-20T05:51:03;101404.91;;;15.78;70.51
78444;BME280;67739;52.986;8.894;2023-07-20T05:53:29;101406.41;;;15.83;70.66
78444;BME280;67739;52.986;8.894;2023-07-20T05:55:54;101406.97;;;15.88;70.43
78444;BME280;67739;52.986;8.894;2023-07-20T05:58:20;101400.31;;;15.94;70.30
78444;BME280;67739;52.986;8.894;2023-07-20T06:00:49;101401.81;;;16.00;70.63
78444;BME280;67739;52.986;8.894;2023-07-20T06:03:15;101414.94;;;16.06;70.29
78444;BME280;67739;52.986;8.894;2023-07-20T06:05:42;101411.88;;;16.12;70.62
78444;BME280;67739;52.986;8.894;2023-07-20T06:08:08;101414.19;;;16.18;70.44
78444;BME280;67739;52.986;8.894;2023-07-20T06:10:33;101415.66;;;16.23;70.26
78444;BME280;67739;52.986;8.894;2023-07-20T06:12:58;101421.66;;;16.29;70.19
78444;BME280;67739;52.986;8.894;2023-07-20T06:15:26;101417.69;;;16.34;69.97
78444;BME280;67739;52.986;8.894;2023-07-20T06:17:53;101417.31;;;16.40;69.84
78444;BME280;67739;52.986;8.894;2023-07-20T06:20:19;101417.78;;;16.47;69.54
78444;BME280;67739;52.986;8.894;2023-07-20T06:22:44;101412.00;;;16.53;69.22
78444;BME280;67739;52.986;8.894;2023-07-20T06:25:11;101428.72;;;16.59;69.18
78444;BME280;67739;52.986;8.894;2023-07-20T06:27:36;101422.97;;;16.66;68.95
78444;BME280;67739;52.986;8.894;2023-07-20T06:30:01;101426.03;;;16.74;68.34
78444;BME280;67739;52.986;8.894;2023-07-20T06:32:26;101427.41;;;16.81;68.52
78444;BME280;67739;52.986;8.894;2023-07-20T06:34:52;101421.47;;;16.88;68.34
78444;BME280;67739;52.986;8.894;2023-07-20T06:37:17;101425.53;;;16.95;67.84
78444;BME280;67739;52.986;8.894;2023-07-20T06:39:43;101422.31;;;17.03;67.70
78444;BME280;67739;52.986;8.894;2023-07-20T06:42:08;101424.34;;;17.14;67.29
78444;BME280;67739;52.986;8.894;2023-07-20T06:44:33;101423.84;;;17.21;66.90
78444;BME280;67739;52.986;8.894;2023-07-20T06:46:58;101428.53;;;17.32;66.70
78444;BME280;67739;52.986;8.894;2023-07-20T06:49:27;101415.25;;;17.42;66.66
78444;BME280;67739;52.986;8.894;2023-07-20T06:51:53;101426.34;;;17.51;66.67
78444;BME280;67739;52.986;8.894;2023-07-20T06:54:18;101421.19;;;17.61;66.43
78444;BME280;67739;52.986;8.894;2023-07-20T06:56:44;101431.34;;;17.72;66.11
78444;BME280;67739;52.986;8.894;2023-07-20T06:59:09;101432.47;;;17.82;65.89
78444;BME280;67739;52.986;8.894;2023-07-20T07:01:34;101427.16;;;17.93;65.62
78444;BME280;67739;52.986;8.894;2023-07-20T07:04:00;101419.28;;;18.02;65.75
78444;BME280;67739;52.986;8.894;2023-07-20T07:06:25;101424.81;;;18.14;65.52
78444;BME280;67739;52.986;8.894;2023-07-20T07:08:52;101428.53;;;18.25;65.13
78444;BME280;67739;52.986;8.894;2023-07-20T07:11:18;101421.34;;;18.37;65.35
78444;BME280;67739;52.986;8.894;2023-07-20T07:13:43;101431.34;;;18.49;64.95
78444;BME280;67739;52.986;8.894;2023-07-20T07:16:08;101428.78;;;18.60;64.94
78444;BME280;67739;52.986;8.894;2023-07-20T07:18:34;101427.03;;;18.72;64.50
78444;BME280;67739;52.986;8.894;2023-07-20T07:20:59;101437.88;;;18.85;64.63
78444;BME280;67739;52.986;8.894;2023-07-20T07:23:24;101429.91;;;18.94;63.92
78444;BME280;67739;52.986;8.894;2023-07-20T07:25:50;101433.06;;;19.01;63.37
78444;BME280;67739;52.986;8.894;2023-07-20T07:28:15;101446.63;;;19.14;63.42
78444;BME280;67739;52.986;8.894;2023-07-20T07:30:41;101430.38;;;19.25;63.09
78444;BME280;67739;52.986;8.894;2023-07-20T07:33:06;101433.16;;;19.36;62.86
78444;BME280;67739;52.986;8.894;2023-07-20T07:35:31;101426.94;;;19.47;62.96
78444;BME280;67739;52.986;8.894;2023-07-20T07:37:56;101439.66;;;19.59;62.50
78444;BME280;67739;52.986;8.894;2023-07-20T07:40:22;101436.97;;;19.70;62.40
78444;BME280;67739;52.986;8.894;2023-07-20T07:42:47;101444.19;;;19.82;61.97
78444;BME280;67739;52.986;8.894;2023-07-20T07:45:12;101445.09;;;19.94;61.84
78444;BME280;67739;52.986;8.894;2023-07-20T07:47:38;101449.47;;;20.07;61.99
78444;BME280;67739;52.986;8.894;2023-07-20T07:50:04;101454.00;;;20.20;61.59
78444;BME280;67739;52.986;8.894;2023-07-20T07:52:29;101449.44;;;20.31;61.20
78444;BME280;67739;52.986;8.894;2023-07-20T07:54:55;101454.94;;;20.42;61.20
78444;BME280;67739;52.986;8.894;2023-07-20T07:57:20;101451.13;;;20.56;60.91
78444;BME280;67739;52.986;8.894;2023-07-20T07:59:46;101451.13;;;20.67;60.33
78444;BME280;67739;52.986;8.894;2023-07-20T08:02:11;101451.88;;;20.80;59.96
78444;BME280;67739;52.986;8.894;2023-07-20T08:04:36;101451.16;;;20.90;59.51
78444;BME280;67739;52.986;8.894;2023-07-20T08:07:03;101450.28;;;21.00;59.17
78444;BME280;67739;52.986;8.894;2023-07-20T08:09:28;101448.41;;;21.12;59.30
78444;BME280;67739;52.986;8.894;2023-07-20T08:11:54;101448.28;;;21.25;59.52
78444;BME280;67739;52.986;8.894;2023-07-20T08:14:19;101458.19;;;21.37;59.00
78444;BME280;67739;52.986;8.894;2023-07-20T08:16:45;101463.63;;;21.48;58.97
78444;BME280;67739;52.986;8.894;2023-07-20T08:19:11;101462.72;;;21.59;58.97
78444;BME280;67739;52.986;8.894;2023-07-20T08:21:36;101462.56;;;21.71;58.99
78444;BME280;67739;52.986;8.894;2023-07-20T08:24:01;101451.72;;;21.81;58.76
78444;BME280;67739;52.986;8.894;2023-07-20T08:26:26;101460.91;;;21.91;58.58
78444;BME280;67739;52.986;8.894;2023-07-20T08:28:52;101463.59;;;22.02;58.63
78444;BME280;67739;52.986;8.894;2023-07-20T08:31:17;101460.06;;;22.11;58.54
78444;BME280;67739;52.986;8.894;2023-07-20T08:33:43;101467.34;;;22.22;58.13
78444;BME280;67739;52.986;8.894;2023-07-20T08:36:08;101457.47;;;22.31;57.50
78444;BME280;67739;52.986;8.894;2023-07-20T08:38:34;101459.53;;;22.38;57.46
78444;BME280;67739;52.986;8.894;2023-07-20T08:40:59;101463.34;;;22.47;57.47
78444;BME280;67739;52.986;8.894;2023-07-20T08:43:27;101460.06;;;22.53;56.82
78444;BME280;67739;52.986;8.894;2023-07-20T08:45:57;101463.00;;;22.61;56.75
78444;BME280;67739;52.986;8.894;2023-07-20T08:48:24;101468.53;;;22.71;56.65
78444;BME280;67739;52.986;8.894;2023-07-20T08:50:51;101469.63;;;22.79;56.17
78444;BME280;67739;52.986;8.894;2023-07-20T08:53:16;101469.78;;;22.87;55.99
78444;BME280;67739;52.986;8.894;2023-07-20T08:55:44;101476.16;;;22.98;56.28
78444;BME280;67739;52.986;8.894;2023-07-20T08:58:12;101473.63;;;23.06;56.49
78444;BME280;67739;52.986;8.894;2023-07-20T09:00:38;101476.41;;;23.15;56.35
78444;BME280;67739;52.986;8.894;2023-07-20T09:03:04;101469.38;;;23.22;55.83
78444;BME280;67739;52.986;8.894;2023-07-20T09:05:30;101466.78;;;23.31;55.89
78444;BME280;67739;52.986;8.894;2023-07-20T09:07:55;101468.81;;;23.38;55.53
78444;BME280;67739;52.986;8.894;2023-07-20T09:10:21;101462.50;;;23.47;54.87
78444;BME280;67739;52.986;8.894;2023-07-20T09:12:47;101463.56;;;23.56;55.45
78444;BME280;67739;52.986;8.894;2023-07-20T09:15:12;101468.03;;;23.67;55.06
78444;BME280;67739;52.986;8.894;2023-07-20T09:17:38;101460.00;;;23.75;54.99
78444;BME280;67739;52.986;8.894;2023-07-20T09:20:04;101461.88;;;23.84;54.83
78444;BME280;67739;52.986;8.894;2023-07-20T09:22:33;101468.25;;;23.94;54.71
78444;BME280;67739;52.986;8.894;2023-07-20T09:24:58;101459.13;;;24.03;54.59
78444;BME280;67739;52.986;8.894;2023-07-20T09:27:38;101465.34;;;24.15;54.58
78444;BME280;67739;52.986;8.894;2023-07-20T09:30:04;101471.69;;;24.25;54.47
78444;BME280;67739;52.986;8.894;2023-07-20T09:32:29;101463.19;;;24.38;54.39
78444;BME280;67739;52.986;8.894;2023-07-20T09:34:55;101461.28;;;24.48;54.57
78444;BME280;67739;52.986;8.894;2023-07-20T09:37:21;101465.59;;;24.60;54.43
78444;BME280;67739;52.986;8.894;2023-07-20T09:39:47;101466.28;;;24.72;54.48
78444;BME280;67739;52.986;8.894;2023-07-20T09:42:14;101463.19;;;24.84;54.48
78444;BME280;67739;52.986;8.894;2023-07-20T09:44:42;101460.84;;;24.99;54.17
78444;BME280;67739;52.986;8.894;2023-07-20T09:47:08;101466.88;;;25.12;54.37
78444;BME280;67739;52.986;8.894;2023-07-20T09:49:39;101456.25;;;25.27;54.52
78444;BME280;67739;52.986;8.894;2023-07-20T09:52:05;101460.19;;;25.42;54.63
78444;BME280;67739;52.986;8.894;2023-07-20T09:54:31;101453.31;;;25.56;53.99
78444;BME280;67739;52.986;8.894;2023-07-20T09:56:58;101461.22;;;25.68;53.91
78444;BME280;67739;52.986;8.894;2023-07-20T09:59:23;101450.72;;;25.82;53.85
78444;BME280;67739;52.986;8.894;2023-07-20T10:01:49;101454.66;;;25.97;53.92
78444;BME280;67739;52.986;8.894;2023-07-20T10:04:19;101454.25;;;26.10;53.93
78444;BME280;67739;52.986;8.894;2023-07-20T10:06:47;101446.44;;;26.23;53.88
78444;BME280;67739;52.986;8.894;2023-07-20T10:09:15;101442.44;;;26.35;53.33
78444;BME280;67739;52.986;8.894;2023-07-20T10:11:45;101436.53;;;26.48;53.29
78444;BME280;67739;52.986;8.894;2023-07-20T10:14:17;101456.91;;;26.63;53.68
78444;BME280;67739;52.986;8.894;2023-07-20T10:16:54;101449.94;;;26.76;53.84
78444;BME280;67739;52.986;8.894;2023-07-20T10:19:25;101449.34;;;26.91;53.85
78444;BME280;67739;52.986;8.894;2023-07-20T10:21:57;101450.97;;;27.01;53.16
78444;BME280;67739;52.986;8.894;2023-07-20T10:24:26;101446.22;;;27.12;53.07
78444;BME280;67739;52.986;8.894;2023-07-20T10:26:53;101449.53;;;27.23;52.82
78444;BME280;67739;52.986;8.894;2023-07-20T10:29:19;101462.13;;;27.34;52.16
78444;BME280;67739;52.986;8.894;2023-07-20T10:31:45;101472.00;;;27.44;52.54
78444;BME280;67739;52.986;8.894;2023-07-20T10:34:11;101480.31;;;27.53;51.74
78444;BME280;67739;52.986;8.894;2023-07-20T10:36:44;101489.81;;;27.58;51.04
78444;BME280;67739;52.986;8.894;2023-07-20T10:39:28;101492.22;;;27.61;50.26
78444;BME280;67739;52.986;8.894;2023-07-20T10:42:08;101501.75;;;27.67;50.59
78444;BME280;67739;52.986;8.894;2023-07-20T10:44:37;101490.03;;;27.73;50.68
78444;BME280;67739;52.986;8.894;2023-07-20T10:47:08;101487.63;;;27.78;50.98
78444;BME280;67739;52.986;8.894;2023-07-20T10:49:34;101484.38;;;27.83;51.08
78444;BME280;67739;52.986;8.894;2023-07-20T10:52:04;101488.88;;;27.84;51.22
78444;BME280;67739;52.986;8.894;2023-07-20T10:57:27;101485.41;;;27.82;51.19
78444;BME280;67739;52.986;8.894;2023-07-20T11:00:07;101486.78;;;27.77;51.03
78444;BME280;67739;52.986;8.894;2023-07-20T11:02:42;101484.88;;;27.70;50.90
78444;BME280;67739;52.986;8.894;2023-07-20T11:05:07;101490.19;;;27.63;50.52
78444;BME280;67739;52.986;8.894;2023-07-20T11:07:37;101482.91;;;27.54;50.56
78444;BME280;67739;52.986;8.894;2023-07-20T11:10:15;101479.38;;;27.44;50.36
78444;BME280;67739;52.986;8.894;2023-07-20T11:12:41;101473.16;;;27.34;50.30
78444;BME280;67739;52.986;8.894;2023-07-20T11:15:06;101476.94;;;27.25;50.50
78444;BME280;67739;52.986;8.894;2023-07-20T11:17:32;101477.19;;;27.14;50.16
78444;BME280;67739;52.986;8.894;2023-07-20T11:20:00;101478.34;;;27.03;50.18
78444;BME280;67739;52.986;8.894;2023-07-20T11:22:27;101473.97;;;26.92;50.30
78444;BME280;67739;52.986;8.894;2023-07-20T11:24:56;101482.50;;;26.81;50.03
78444;BME280;67739;52.986;8.894;2023-07-20T11:27:24;101472.81;;;26.69;49.83
78444;BME280;67739;52.986;8.894;2023-07-20T11:29:50;101466.50;;;26.59;50.17
78444;BME280;67739;52.986;8.894;2023-07-20T11:32:21;101468.69;;;26.47;49.98
78444;BME280;67739;52.986;8.894;2023-07-20T11:34:48;101473.25;;;26.38;50.16
78444;BME280;67739;52.986;8.894;2023-07-20T11:37:13;101472.31;;;26.30;50.21
78444;BME280;67739;52.986;8.894;2023-07-20T11:39:39;101467.75;;;26.21;49.91
78444;BME280;67739;52.986;8.894;2023-07-20T11:42:05;101467.50;;;26.14;49.98
78444;BME280;67739;52.986;8.894;2023-07-20T11:44:31;101460.06;;;26.06;49.74
78444;BME280;67739;52.986;8.894;2023-07-20T11:47:10;101454.16;;;26.01;49.93
78444;BME280;67739;52.986;8.894;2023-07-20T11:49:41;101454.47;;;25.98;50.10
78444;BME280;67739;52.986;8.894;2023-07-20T11:52:09;101453.78;;;25.96;50.30
78444;BME280;67739;52.986;8.894;2023-07-20T11:54:35;101450.00;;;25.97;50.40
78444;BME280;67739;52.986;8.894;2023-07-20T11:57:03;101448.97;;;25.98;50.76
78444;BME280;67739;52.986;8.894;2023-07-20T11:59:28;101452.28;;;26.02;50.62
78444;BME280;67739;52.986;8.894;2023-07-20T12:01:54;101444.28;;;26.09;51.32
78444;BME280;67739;52.986;8.894;2023-07-20T12:04:22;101440.00;;;26.14;51.22
78444;BME280;67739;52.986;8.894;2023-07-20T12:06:47;101442.13;;;26.20;50.73
78444;BME280;67739;52.986;8.894;2023-07-20T12:09:14;101438.44;;;26.29;51.29
78444;BME280;67739;52.986;8.894;2023-07-20T12:11:43;101432.66;;;26.40;51.84
78444;BME280;67739;52.986;8.894;2023-07-20T12:14:09;101430.53;;;26.52;52.06
78444;BME280;67739;52.986;8.894;2023-07-20T12:16:36;101437.19;;;26.67;52.24
78444;BME280;67739;52.986;8.894;2023-07-20T12:19:04;101433.66;;;26.83;52.50
78444;BME280;67739;52.986;8.894;2023-07-20T12:21:31;101438.59;;;26.97;52.44
78444;BME280;67739;52.986;8.894;2023-07-20T12:23:57;101435.88;;;27.14;52.49
78444;BME280;67739;52.986;8.894;2023-07-20T12:26:24;101429.72;;;27.28;52.65
78444;BME280;67739;52.986;8.894;2023-07-20T12:28:50;101429.78;;;27.44;52.22
78444;BME280;67739;52.986;8.894;2023-07-20T12:31:16;101447.25;;;27.61;52.65
78444;BME280;67739;52.986;8.894;2023-07-20T12:33:42;101434.38;;;27.77;52.86
78444;BME280;67739;52.986;8.894;2023-07-20T12:36:09;101452.69;;;27.95;52.98
78444;BME280;67739;52.986;8.894;2023-07-20T12:38:34;101455.44;;;28.11;53.09
78444;BME280;67739;52.986;8.894;2023-07-20T12:41:01;101453.75;;;28.26;53.45
78444;BME280;67739;52.986;8.894;2023-07-20T12:43:26;101470.50;;;28.41;53.26
78444;BME280;67739;52.986;8.894;2023-07-20T12:45:52;101466.16;;;28.55;53.28
78444;BME280;67739;52.986;8.894;2023-07-20T12:48:18;101469.59;;;28.65;53.34
78444;BME280;67739;52.986;8.894;2023-07-20T12:50:43;101468.34;;;28.75;53.54
78444;BME280;67739;52.986;8.894;2023-07-20T12:53:09;101472.19;;;28.82;53.45
78444;BME280;67739;52.986;8.894;2023-07-20T12:55:34;101470.59;;;28.88;52.92
78444;BME280;67739;52.986;8.894;2023-07-20T12:57:59;101460.06;;;28.92;53.10
78444;BME280;67739;52.986;8.894;2023-07-20T13:00:25;101464.53;;;28.93;52.75